createdAt,value
2018-08-10T00:00:38.005Z,23.19
2018-08-10T00:03:07.430Z,23.18
2018-08-10T00:05:36.601Z,23.16
2018-08-10T00:08:05.188Z,23.14
2018-08-10T00:10:33.714Z,22.98
2018-08-10T00:13:02.325Z,22.99
2018-08-10T00:15:30.873Z,22.94
2018-08-10T00:17:59.343Z,22.92
2018-08-10T00:20:27.914Z,22.99
2018-08-10T00:22:56.447Z,23.03
2018-08-10T00:25:24.987Z,23.09
2018-08-10T00:27:53.505Z,23.05
2018-08-10T00:30:22.087Z,22.81
2018-08-10T00:32:51.139Z,22.72
2018-08-10T00:35:19.712Z,22.62
2018-08-10T00:37:48.934Z,22.63
2018-08-10T00:40:21.730Z,22.60
2018-08-10T00:42:50.270Z,22.60
2018-08-10T00:45:20.617Z,22.47
2018-08-10T00:47:49.773Z,22.61
2018-08-10T00:50:19.030Z,22.65
2018-08-10T00:52:48.500Z,22.73
2018-08-10T00:55:18.429Z,22.77
2018-08-10T00:57:47.614Z,22.80
2018-08-10T01:00:22.850Z,22.84
2018-08-10T01:02:52.295Z,22.88
2018-08-10T01:05:20.864Z,22.82
2018-08-10T01:07:49.347Z,22.85
2018-08-10T01:10:19.328Z,22.86
2018-08-10T01:12:47.999Z,22.80
2018-08-10T01:15:17.345Z,22.82
2018-08-10T01:17:46.493Z,22.69
2018-08-10T01:20:20.672Z,22.62
2018-08-10T01:22:54.413Z,22.58
2018-08-10T01:25:24.989Z,22.33
2018-08-10T01:27:56.812Z,22.25
2018-08-10T01:30:26.821Z,22.04
2018-08-10T01:32:55.445Z,22.04
2018-08-10T01:35:24.733Z,22.12
2018-08-10T01:37:53.981Z,22.18
2018-08-10T01:40:22.553Z,22.13
2018-08-10T01:42:51.057Z,22.09
2018-08-10T01:45:19.629Z,22.09
2018-08-10T01:47:48.122Z,22.20
2018-08-10T01:50:16.668Z,22.27
2018-08-10T01:52:45.229Z,22.21
2018-08-10T01:55:13.768Z,22.34
2018-08-10T01:57:42.317Z,22.31
2018-08-10T02:00:11.356Z,22.38
2018-08-10T02:02:39.954Z,22.34
2018-08-10T02:05:11.130Z,22.29
2018-08-10T02:07:40.236Z,22.40
2018-08-10T02:10:12.185Z,22.49
2018-08-10T02:12:41.604Z,22.31
2018-08-10T02:15:12.565Z,22.30
2018-08-10T02:17:41.175Z,22.42
2018-08-10T02:20:12.018Z,22.29
2018-08-10T02:22:40.604Z,22.28
2018-08-10T02:25:10.904Z,22.02
2018-08-10T02:27:39.567Z,22.07
2018-08-10T02:30:10.169Z,22.14
2018-08-10T02:32:39.093Z,21.86
2018-08-10T02:35:07.842Z,21.82
2018-08-10T02:37:36.951Z,21.55
2018-08-10T02:40:07.192Z,21.25
2018-08-10T02:42:35.709Z,21.15
2018-08-10T02:45:04.669Z,21.04
2018-08-10T02:47:33.169Z,20.90
2018-08-10T02:50:01.638Z,20.78
2018-08-10T02:52:30.158Z,20.72
2018-08-10T02:54:58.606Z,20.51
2018-08-10T02:57:27.078Z,20.54
2018-08-10T02:59:55.545Z,20.55
2018-08-10T03:02:24.095Z,20.54
2018-08-10T03:04:52.552Z,20.55
2018-08-10T03:07:21.066Z,20.47
2018-08-10T03:09:49.531Z,20.52
2018-08-10T03:12:18.065Z,20.57
2018-08-10T03:14:46.617Z,20.65
2018-08-10T03:17:15.148Z,20.67
2018-08-10T03:19:43.598Z,20.61
2018-08-10T03:22:12.153Z,20.64
2018-08-10T03:24:40.663Z,20.65
2018-08-10T03:27:09.166Z,20.65
2018-08-10T03:29:37.690Z,20.58
2018-08-10T03:32:06.462Z,20.52
2018-08-10T03:34:34.969Z,20.57
2018-08-10T03:37:03.501Z,20.40
2018-08-10T03:39:31.980Z,20.42
2018-08-10T03:42:00.500Z,20.50
2018-08-10T03:44:28.980Z,20.39
2018-08-10T03:46:57.579Z,20.37
2018-08-10T03:49:26.056Z,20.34
2018-08-10T03:51:54.562Z,20.36
2018-08-10T03:54:23.060Z,20.39
2018-08-10T03:56:51.561Z,20.59
2018-08-10T03:59:20.050Z,20.53
2018-08-10T04:01:48.579Z,20.55
2018-08-10T04:04:17.066Z,20.33
2018-08-10T04:06:45.568Z,20.20
2018-08-10T04:09:14.032Z,20.22
2018-08-10T04:11:43.236Z,20.24
2018-08-10T04:14:11.677Z,20.36
2018-08-10T04:16:40.217Z,20.36
2018-08-10T04:19:08.779Z,20.40
2018-08-10T04:21:37.244Z,20.49
2018-08-10T04:24:05.755Z,20.46
2018-08-10T04:26:34.241Z,20.43
2018-08-10T04:29:02.729Z,20.44
2018-08-10T04:31:31.209Z,20.44
2018-08-10T04:33:59.729Z,20.43
2018-08-10T04:36:28.805Z,20.49
2018-08-10T04:38:57.300Z,20.45
2018-08-10T04:41:25.760Z,20.48
2018-08-10T04:43:54.267Z,20.47
2018-08-10T04:46:22.741Z,20.48
2018-08-10T04:48:51.229Z,20.51
2018-08-10T04:51:19.701Z,20.61
2018-08-10T04:53:48.208Z,20.55
2018-08-10T04:56:16.646Z,20.56
2018-08-10T04:58:45.359Z,20.64
2018-08-10T05:01:13.973Z,20.63
2018-08-10T05:03:42.468Z,20.59
2018-08-10T05:06:11.184Z,20.54
2018-08-10T05:08:39.758Z,20.62
2018-08-10T05:11:08.278Z,20.61
2018-08-10T05:13:36.856Z,20.51
2018-08-10T05:16:05.345Z,20.57
2018-08-10T05:18:33.863Z,20.61
2018-08-10T05:21:02.450Z,20.70
2018-08-10T05:23:31.225Z,20.42
2018-08-10T05:25:59.875Z,20.47
2018-08-10T05:28:28.538Z,20.46
2018-08-10T05:30:57.045Z,20.45
2018-08-10T05:33:25.588Z,20.56
2018-08-10T05:35:54.102Z,20.70
2018-08-10T05:38:22.610Z,20.55
2018-08-10T05:40:51.099Z,20.51
2018-08-10T05:43:19.612Z,20.52
2018-08-10T05:45:48.196Z,20.54
2018-08-10T05:48:16.737Z,20.44
2018-08-10T05:50:45.658Z,20.46
2018-08-10T05:53:14.330Z,20.45
2018-08-10T05:55:42.797Z,20.40
2018-08-10T05:58:11.297Z,20.45
2018-08-10T06:00:39.873Z,20.36
2018-08-10T06:03:08.366Z,20.28
2018-08-10T06:05:36.850Z,20.31
2018-08-10T06:08:05.402Z,20.15
2018-08-10T06:10:33.863Z,20.30
2018-08-10T06:15:54.888Z,20.30
2018-08-10T06:18:23.361Z,20.22
2018-08-10T06:20:51.838Z,20.07
2018-08-10T06:23:20.305Z,20.16
2018-08-10T06:25:48.789Z,20.14
2018-08-10T06:28:17.331Z,20.11
2018-08-10T06:33:38.316Z,20.10
2018-08-10T06:36:06.810Z,20.28
2018-08-10T06:38:35.301Z,20.38
2018-08-10T06:41:03.798Z,20.32
2018-08-10T06:43:32.278Z,20.40
2018-08-10T06:46:00.745Z,20.38
2018-08-10T06:48:29.215Z,20.52
2018-08-10T06:50:57.778Z,20.46
2018-08-10T06:53:26.261Z,20.41
2018-08-10T06:55:54.802Z,20.53
2018-08-10T06:58:23.290Z,20.54
2018-08-10T07:00:51.840Z,20.57
2018-08-10T07:03:20.283Z,20.76
2018-08-10T07:05:48.817Z,21.03
2018-08-10T07:08:17.295Z,21.20
2018-08-10T07:10:45.793Z,21.30
2018-08-10T07:13:14.384Z,21.46
2018-08-10T07:15:42.820Z,21.52
2018-08-10T07:18:11.329Z,21.77
2018-08-10T07:20:39.842Z,21.73
2018-08-10T07:23:08.354Z,22.08
2018-08-10T07:25:36.873Z,22.30
2018-08-10T07:28:05.558Z,22.20
2018-08-10T07:30:36.169Z,22.22
2018-08-10T07:33:04.771Z,22.21
2018-08-10T07:35:33.368Z,21.93
2018-08-10T07:38:01.928Z,21.47
2018-08-10T07:40:30.594Z,21.15
2018-08-10T07:42:59.052Z,20.95
2018-08-10T07:45:27.784Z,20.63
2018-08-10T07:47:56.566Z,20.44
2018-08-10T07:50:25.106Z,20.27
2018-08-10T07:52:53.829Z,20.24
2018-08-10T07:55:22.444Z,20.22
2018-08-10T07:57:51.107Z,20.26
2018-08-10T08:00:20.065Z,20.29
2018-08-10T08:02:48.571Z,20.37
2018-08-10T08:05:17.090Z,20.52
2018-08-10T08:07:45.665Z,20.57
2018-08-10T08:10:14.282Z,20.38
2018-08-10T08:12:43.087Z,20.40
2018-08-10T08:15:11.958Z,20.42
2018-08-10T08:17:40.941Z,20.31
2018-08-10T08:20:10.072Z,20.16
2018-08-10T08:22:38.716Z,20.19
2018-08-10T08:25:07.482Z,20.17
2018-08-10T08:27:36.020Z,20.11
2018-08-10T08:30:06.003Z,20.15
2018-08-10T08:32:34.788Z,20.00
2018-08-10T08:35:03.757Z,19.93
2018-08-10T08:37:32.720Z,19.99
2018-08-10T08:40:10.143Z,20.08
2018-08-10T08:42:38.876Z,19.86
2018-08-10T08:46:11.836Z,19.79
2018-08-10T08:48:44.370Z,19.64
2018-08-10T08:51:22.003Z,19.62
2018-08-10T08:55:00.303Z,19.43
2018-08-10T08:57:29.199Z,19.40
2018-08-10T08:59:57.688Z,19.39
2018-08-10T09:02:26.365Z,19.54
2018-08-10T09:05:00.034Z,19.61
2018-08-10T09:07:29.471Z,19.71
2018-08-10T09:10:00.166Z,19.84
2018-08-10T09:12:28.943Z,19.58
2018-08-10T09:15:01.036Z,19.63
2018-08-10T09:17:29.797Z,19.71
2018-08-10T09:19:58.447Z,19.85
2018-08-10T09:22:27.099Z,19.73
2018-08-10T09:24:55.760Z,19.53
2018-08-10T09:27:24.437Z,19.43
2018-08-10T09:29:58.611Z,18.88
2018-08-10T09:32:27.154Z,18.62
2018-08-10T09:34:55.975Z,18.41
2018-08-10T09:37:24.557Z,18.40
2018-08-10T09:39:53.425Z,18.47
2018-08-10T09:42:22.206Z,18.51
2018-08-10T09:44:50.688Z,18.27
2018-08-10T09:47:19.756Z,18.08
2018-08-10T09:49:50.662Z,17.88
2018-08-10T09:52:19.318Z,17.82
2018-08-10T09:55:23.286Z,17.76
2018-08-10T09:57:53.419Z,17.72
2018-08-10T10:00:27.174Z,17.68
2018-08-10T10:03:01.090Z,17.75
2018-08-10T10:05:29.730Z,17.87
2018-08-10T10:07:58.357Z,17.88
2018-08-10T10:10:27.002Z,18.04
2018-08-10T10:12:56.422Z,18.16
2018-08-10T10:15:25.071Z,17.85
2018-08-10T10:17:53.878Z,17.74
2018-08-10T10:20:22.426Z,17.61
2018-08-10T10:22:51.244Z,17.35
2018-08-10T10:25:19.831Z,17.35
2018-08-10T10:27:48.649Z,17.52
2018-08-10T10:30:17.280Z,17.50
2018-08-10T10:32:48.334Z,17.63
2018-08-10T10:35:16.718Z,17.74
2018-08-10T10:37:45.362Z,17.85
2018-08-10T10:40:14.020Z,17.86
2018-08-10T10:42:43.432Z,17.90
2018-08-10T10:45:14.027Z,17.85
2018-08-10T10:47:43.742Z,17.94
2018-08-10T10:50:13.434Z,17.97
2018-08-10T10:52:42.399Z,17.96
2018-08-10T10:55:11.459Z,17.98
2018-08-10T10:57:40.564Z,18.09
2018-08-10T11:00:11.478Z,18.10
2018-08-10T11:02:40.578Z,18.16
2018-08-10T11:05:09.742Z,18.44
2018-08-10T11:07:38.620Z,18.27
2018-08-10T11:10:08.883Z,18.33
2018-08-10T11:12:37.982Z,18.03
2018-08-10T11:15:07.200Z,17.95
2018-08-10T11:17:36.086Z,17.82
2018-08-10T11:20:05.375Z,17.87
2018-08-10T11:22:33.961Z,17.84
2018-08-10T11:25:02.828Z,18.07
2018-08-10T11:27:31.298Z,18.20
2018-08-10T11:29:59.917Z,18.20
2018-08-10T11:32:28.406Z,18.11
2018-08-10T11:34:56.910Z,18.19
2018-08-10T11:37:25.382Z,18.07
2018-08-10T11:39:53.853Z,17.89
2018-08-10T11:42:22.377Z,17.73
2018-08-10T11:44:50.984Z,17.89
2018-08-10T11:47:19.566Z,17.79
2018-08-10T11:49:48.199Z,18.25
2018-08-10T11:52:16.857Z,18.58
2018-08-10T11:54:45.557Z,18.68
2018-08-10T11:57:14.135Z,18.91
2018-08-10T11:59:42.742Z,19.05
2018-08-10T12:02:11.280Z,19.23
2018-08-10T12:04:39.924Z,19.27
2018-08-10T12:07:08.863Z,19.09
2018-08-10T12:09:37.566Z,19.19
2018-08-10T12:12:06.187Z,19.24
2018-08-10T12:14:34.782Z,19.17
2018-08-10T12:17:03.556Z,19.01
2018-08-10T12:19:32.182Z,18.80
2018-08-10T12:22:00.842Z,18.87
2018-08-10T12:24:29.398Z,19.00
2018-08-10T12:26:57.942Z,19.21
2018-08-10T12:29:26.576Z,19.08
2018-08-10T12:31:55.149Z,19.46
2018-08-10T12:34:23.749Z,19.71
2018-08-10T12:36:52.335Z,19.76
2018-08-10T12:39:20.957Z,19.66
2018-08-10T12:41:49.564Z,19.69
2018-08-10T12:44:18.145Z,19.43
2018-08-10T12:46:46.695Z,19.28
2018-08-10T12:49:15.294Z,19.43
2018-08-10T12:51:43.890Z,19.44
2018-08-10T12:54:12.458Z,19.46
2018-08-10T12:56:41.190Z,19.34
2018-08-10T12:59:10.474Z,19.20
2018-08-10T13:01:39.178Z,19.15
2018-08-10T13:04:07.763Z,19.17
2018-08-10T13:06:40.102Z,19.03
2018-08-10T13:09:11.692Z,19.12
2018-08-10T13:11:40.219Z,19.09
2018-08-10T13:14:09.138Z,19.13
2018-08-10T13:16:37.766Z,19.16
2018-08-10T13:19:06.528Z,19.43
2018-08-10T13:21:35.258Z,19.49
2018-08-10T13:24:04.654Z,19.58
2018-08-10T13:26:33.213Z,19.47
2018-08-10T13:29:01.777Z,19.07
2018-08-10T13:31:30.299Z,18.90
2018-08-10T13:33:58.785Z,19.05
2018-08-10T13:36:27.373Z,18.88
2018-08-10T13:38:55.861Z,19.00
2018-08-10T13:41:24.384Z,19.22
2018-08-10T13:43:52.889Z,19.32
2018-08-10T13:46:21.360Z,19.24
2018-08-10T13:48:49.821Z,19.38
2018-08-10T13:51:18.317Z,19.19
2018-08-10T13:53:46.833Z,19.28
2018-08-10T13:56:15.411Z,19.30
2018-08-10T13:58:43.934Z,19.39
2018-08-10T14:01:12.478Z,19.02
2018-08-10T14:03:41.052Z,19.59
2018-08-10T14:06:10.061Z,19.81
2018-08-10T14:08:38.663Z,19.80
2018-08-10T14:11:07.238Z,19.55
2018-08-10T14:13:35.964Z,19.24
2018-08-10T14:16:04.597Z,19.44
2018-08-10T14:18:33.386Z,19.41
2018-08-10T14:21:01.919Z,19.60
2018-08-10T14:23:31.365Z,20.26
2018-08-10T14:25:59.938Z,20.69
2018-08-10T14:28:28.619Z,20.93
2018-08-10T14:30:57.151Z,20.52
2018-08-10T14:33:25.698Z,20.52
2018-08-10T14:35:54.249Z,20.82
2018-08-10T14:38:22.736Z,21.19
2018-08-10T14:40:51.278Z,21.81
2018-08-10T14:43:19.767Z,22.73
2018-08-10T14:45:48.352Z,23.35
2018-08-10T14:48:16.912Z,23.82
2018-08-10T14:50:45.459Z,23.79
2018-08-10T14:53:14.027Z,23.84
2018-08-10T14:55:42.481Z,23.93
2018-08-10T14:58:11.070Z,24.97
2018-08-10T15:00:39.683Z,24.98
2018-08-10T15:03:08.521Z,25.04
2018-08-10T15:05:37.071Z,25.24
2018-08-10T15:08:05.757Z,26.96
2018-08-10T15:10:34.261Z,28.32
2018-08-10T15:13:02.921Z,28.80
2018-08-10T15:15:31.326Z,28.42
2018-08-10T15:17:59.853Z,28.43
2018-08-10T15:20:28.556Z,29.40
2018-08-10T15:22:57.165Z,28.83
2018-08-10T15:25:25.649Z,28.26
2018-08-10T15:27:54.197Z,28.45
2018-08-10T15:30:22.675Z,30.03
2018-08-10T15:32:51.244Z,29.58
2018-08-10T15:35:19.852Z,27.86
2018-08-10T15:37:48.417Z,26.54
2018-08-10T15:40:18.487Z,25.42
2018-08-10T15:42:47.017Z,25.41
2018-08-10T15:45:16.679Z,25.26
2018-08-10T15:47:45.807Z,23.89
2018-08-10T15:50:14.757Z,24.13
2018-08-10T15:52:44.505Z,24.60
2018-08-10T15:55:13.647Z,25.80
2018-08-10T15:57:42.231Z,25.52
2018-08-10T16:00:17.044Z,25.19
2018-08-10T16:02:45.809Z,24.38
2018-08-10T16:05:14.378Z,23.59
2018-08-10T16:07:44.587Z,23.53
2018-08-10T16:10:13.323Z,23.36
2018-08-10T16:12:41.905Z,23.11
2018-08-10T16:15:12.475Z,23.27
2018-08-10T16:17:41.120Z,23.18
2018-08-10T16:20:11.522Z,23.87
2018-08-10T16:22:40.097Z,25.35
2018-08-10T16:25:10.093Z,24.71
2018-08-10T16:27:38.651Z,23.48
2018-08-10T16:30:09.002Z,22.89
2018-08-10T16:32:37.812Z,22.45
2018-08-10T16:35:07.670Z,22.17
2018-08-10T16:37:36.267Z,21.62
2018-08-10T16:40:06.110Z,21.05
2018-08-10T16:42:34.657Z,20.58
2018-08-10T16:45:03.249Z,20.13
2018-08-10T16:47:31.806Z,19.89
2018-08-10T16:50:00.317Z,19.77
2018-08-10T16:52:28.850Z,19.48
2018-08-10T16:54:57.345Z,19.25
2018-08-10T16:57:25.902Z,18.97
2018-08-10T16:59:57.640Z,18.90
2018-08-10T17:02:26.706Z,18.95
2018-08-10T17:04:55.170Z,19.00
2018-08-10T17:07:23.691Z,19.11
2018-08-10T17:09:52.238Z,19.24
2018-08-10T17:13:49.868Z,19.16
2018-08-10T17:16:18.334Z,18.95
2018-08-10T17:18:46.831Z,18.84
2018-08-10T17:21:15.373Z,18.83
2018-08-10T17:23:43.902Z,18.80
2018-08-10T17:26:12.349Z,18.89
2018-08-10T17:28:40.854Z,18.93
2018-08-10T17:31:09.343Z,18.85
2018-08-10T17:33:37.845Z,18.79
2018-08-10T17:36:06.825Z,18.80
2018-08-10T17:38:35.326Z,18.95
2018-08-10T17:41:03.818Z,19.01
2018-08-10T17:43:32.366Z,18.81
2018-08-10T17:46:00.878Z,18.78
2018-08-10T17:48:29.392Z,18.87
2018-08-10T17:50:57.961Z,18.75
2018-08-10T17:53:26.509Z,18.77
2018-08-10T17:55:54.961Z,18.60
2018-08-10T17:58:23.489Z,18.60
2018-08-10T18:00:51.998Z,18.57
2018-08-10T18:03:20.533Z,18.44
2018-08-10T18:05:49.071Z,18.34
2018-08-10T18:08:17.574Z,18.27
2018-08-10T18:10:46.046Z,18.32
2018-08-10T18:13:14.777Z,18.32
2018-08-10T18:15:43.727Z,18.39
2018-08-10T18:18:12.253Z,18.26
2018-08-10T18:20:40.798Z,18.34
2018-08-10T18:23:09.301Z,18.20
2018-08-10T18:25:37.801Z,18.22
2018-08-10T18:28:06.314Z,18.15
2018-08-10T18:30:34.815Z,18.09
2018-08-10T18:33:03.362Z,18.04
2018-08-10T18:35:31.878Z,18.10
2018-08-10T18:38:00.434Z,18.11
2018-08-10T18:40:29.005Z,17.99
2018-08-10T18:42:57.501Z,17.99
2018-08-10T18:45:26.102Z,17.87
2018-08-10T18:47:54.616Z,17.77
2018-08-10T18:50:23.164Z,17.74
2018-08-10T18:52:51.664Z,17.72
2018-08-10T18:55:21.968Z,17.68
2018-08-10T18:57:51.051Z,17.81
2018-08-10T19:00:23.086Z,17.87
2018-08-10T19:02:51.685Z,17.95
2018-08-10T19:05:20.262Z,17.85
2018-08-10T19:07:49.194Z,17.87
2018-08-10T19:10:22.003Z,17.83
2018-08-10T19:12:50.541Z,17.84
2018-08-10T19:15:19.101Z,17.73
2018-08-10T19:17:47.837Z,17.71
2018-08-10T19:20:16.727Z,17.61
2018-08-10T19:22:45.696Z,17.48
2018-08-10T19:25:14.972Z,17.43
2018-08-10T19:27:43.374Z,17.53
2018-08-10T19:30:15.694Z,17.62
2018-08-10T19:32:45.338Z,17.49
2018-08-10T19:35:13.933Z,17.54
2018-08-10T19:37:42.477Z,17.57
2018-08-10T19:40:12.979Z,17.63
2018-08-10T19:42:41.510Z,17.49
2018-08-10T19:45:11.295Z,17.37
2018-08-10T19:47:40.124Z,17.29
2018-08-10T19:50:10.058Z,17.20
2018-08-10T19:52:38.686Z,17.13
2018-08-10T19:55:09.199Z,17.11
2018-08-10T19:57:37.833Z,17.03
2018-08-10T20:00:07.186Z,16.98
2018-08-10T20:02:35.786Z,16.91
2018-08-10T20:05:05.105Z,16.70
2018-08-10T20:07:33.601Z,16.48
2018-08-10T20:10:02.142Z,16.52
2018-08-10T20:12:30.658Z,16.51
2018-08-10T20:14:59.202Z,16.55
2018-08-10T20:17:27.693Z,16.64
2018-08-10T20:19:56.337Z,16.57
2018-08-10T20:22:25.020Z,16.57
2018-08-10T20:24:53.631Z,16.68
2018-08-10T20:27:22.165Z,16.62
2018-08-10T20:29:50.726Z,16.67
2018-08-10T20:32:19.269Z,16.67
2018-08-10T20:34:47.813Z,16.53
2018-08-10T20:37:16.342Z,16.46
2018-08-10T20:39:44.879Z,16.28
2018-08-10T20:42:13.456Z,16.26
2018-08-10T20:44:41.948Z,16.14
2018-08-10T20:47:10.666Z,15.93
2018-08-10T20:49:39.181Z,15.72
2018-08-10T20:52:07.727Z,15.74
2018-08-10T20:54:36.234Z,15.78
2018-08-10T20:57:04.762Z,15.85
2018-08-10T20:59:33.340Z,15.92
2018-08-10T21:02:01.881Z,15.91
2018-08-10T21:04:30.403Z,15.85
2018-08-10T21:06:58.922Z,15.81
2018-08-10T21:09:27.481Z,15.80
2018-08-10T21:11:56.018Z,15.88
2018-08-10T21:14:24.506Z,15.93
2018-08-10T21:16:53.031Z,15.88
2018-08-10T21:19:21.502Z,15.97
2018-08-10T21:21:50.047Z,16.02
2018-08-10T21:24:18.549Z,16.01
2018-08-10T21:26:47.089Z,16.04
2018-08-10T21:29:15.618Z,16.01
2018-08-10T21:31:44.158Z,16.08
2018-08-10T21:34:12.631Z,16.16
2018-08-10T21:36:41.184Z,16.13
2018-08-10T21:39:11.509Z,16.08
2018-08-10T21:41:40.254Z,16.08
2018-08-10T21:44:09.299Z,15.97
2018-08-10T21:46:37.858Z,15.89
2018-08-10T21:49:06.885Z,16.02
2018-08-10T21:51:35.510Z,15.94
2018-08-10T21:54:04.079Z,15.95
2018-08-10T21:56:32.650Z,15.96
2018-08-10T21:59:01.151Z,15.91
2018-08-10T22:01:29.660Z,15.92
2018-08-10T22:03:58.253Z,15.96
2018-08-10T22:06:26.791Z,15.88
2018-08-10T22:08:55.310Z,15.86
2018-08-10T22:11:23.831Z,15.85
2018-08-10T22:14:59.533Z,15.82
2018-08-10T22:17:33.362Z,15.77
2018-08-10T22:20:01.902Z,15.73
2018-08-10T22:22:31.701Z,15.64
2018-08-10T22:25:00.246Z,15.61
2018-08-10T22:27:28.777Z,15.61
2018-08-10T22:29:57.294Z,15.63
2018-08-10T22:32:25.806Z,15.57
2018-08-10T22:34:54.381Z,15.45
2018-08-10T22:37:22.950Z,15.43
2018-08-10T22:39:51.433Z,15.39
2018-08-10T22:42:19.954Z,15.45
2018-08-10T22:44:48.930Z,15.34
2018-08-10T22:47:17.485Z,15.26
2018-08-10T22:49:46.026Z,15.31
2018-08-10T22:52:14.531Z,15.35
2018-08-10T22:54:43.063Z,15.40
2018-08-10T22:57:11.623Z,15.43
2018-08-10T22:59:40.165Z,15.43
2018-08-10T23:02:08.809Z,15.42
2018-08-10T23:04:37.351Z,15.43
2018-08-10T23:07:05.873Z,15.37
2018-08-10T23:09:34.378Z,15.34
2018-08-10T23:12:02.940Z,15.27
2018-08-10T23:14:32.432Z,15.25
2018-08-10T23:17:00.973Z,15.20
2018-08-10T23:19:29.482Z,14.96
2018-08-10T23:21:57.991Z,14.80
2018-08-10T23:24:26.513Z,14.78
2018-08-10T23:26:55.054Z,14.83
2018-08-10T23:29:23.669Z,14.86
2018-08-10T23:31:52.194Z,14.83
2018-08-10T23:34:20.682Z,14.91
2018-08-10T23:36:49.176Z,14.89
2018-08-10T23:39:17.715Z,14.91
2018-08-10T23:41:46.238Z,14.88
2018-08-10T23:44:14.773Z,14.87
2018-08-10T23:46:43.254Z,14.88
2018-08-10T23:49:11.864Z,14.90
2018-08-10T23:51:40.513Z,14.93
2018-08-10T23:54:09.036Z,14.88
2018-08-10T23:56:37.505Z,14.89
2018-08-10T23:59:06.031Z,14.90
